createdAt,value
2022-11-27T00:00:23.548Z,99254.69
2022-11-27T00:01:28.550Z,99255.66
2022-11-27T00:02:33.306Z,99265.12
2022-11-27T00:03:40.392Z,99266.09
2022-11-27T00:04:43.452Z,99257.09
2022-11-27T00:05:58.988Z,99258.16
2022-11-27T00:07:01.702Z,99252.75
2022-11-27T00:08:04.523Z,99257.91
2022-11-27T00:09:12.554Z,99256.00
2022-11-27T00:10:15.302Z,99254.69
2022-11-27T00:11:21.532Z,99249.22
2022-11-27T00:12:24.267Z,99255.19
2022-11-27T00:13:26.945Z,99252.03
2022-11-27T00:14:29.551Z,99253.59
2022-11-27T00:15:32.379Z,99249.91
2022-11-27T00:16:35.102Z,99251.38
2022-11-27T00:17:38.366Z,99251.38
2022-11-27T00:18:42.303Z,99256.88
2022-11-27T00:19:45.001Z,99252.16
2022-11-27T00:20:47.661Z,99257.69
2022-11-27T00:21:50.413Z,99249.09
2022-11-27T00:22:53.055Z,99250.50
2022-11-27T00:23:58.381Z,99248.84
2022-11-27T00:25:01.091Z,99254.69
2022-11-27T00:26:04.540Z,99248.41
2022-11-27T00:27:07.459Z,99246.78
2022-11-27T00:28:10.210Z,99244.91
2022-11-27T00:29:13.020Z,99247.19
2022-11-27T00:30:15.894Z,99245.28
2022-11-27T00:31:27.634Z,99249.28
2022-11-27T00:32:30.413Z,99250.94
2022-11-27T00:33:33.717Z,99249.28
2022-11-27T00:34:36.363Z,99249.06
2022-11-27T00:35:39.789Z,99250.00
2022-11-27T00:36:46.567Z,99247.59
2022-11-27T00:37:51.437Z,99246.31
2022-11-27T00:38:55.149Z,99244.56
2022-11-27T00:39:58.079Z,99249.28
2022-11-27T00:41:36.961Z,99245.00
2022-11-27T00:42:39.676Z,99253.78
2022-11-27T00:43:44.820Z,99256.81
2022-11-27T00:44:48.374Z,99252.09
2022-11-27T00:45:51.044Z,99254.94
2022-11-27T00:46:53.901Z,99252.75
2022-11-27T00:47:56.567Z,99253.03
2022-11-27T00:49:00.991Z,99257.75
2022-11-27T00:50:04.480Z,99253.34
2022-11-27T00:51:09.674Z,99253.13
2022-11-27T00:52:12.700Z,99256.91
2022-11-27T00:53:15.828Z,99258.16
2022-11-27T00:54:20.769Z,99262.88
2022-11-27T00:55:25.852Z,99254.28
2022-11-27T00:56:38.173Z,99257.22
2022-11-27T00:57:40.968Z,99263.91
2022-11-27T00:58:44.104Z,99258.03
2022-11-27T00:59:46.781Z,99255.81
2022-11-27T01:01:00.742Z,99260.84
2022-11-27T01:02:03.499Z,99252.75
2022-11-27T01:03:06.415Z,99258.00
2022-11-27T01:04:13.445Z,99263.22
2022-11-27T01:05:16.381Z,99261.53
2022-11-27T01:06:20.261Z,99256.09
2022-11-27T01:07:23.123Z,99263.53
2022-11-27T01:08:26.580Z,99265.53
2022-11-27T01:09:29.481Z,99259.09
2022-11-27T01:10:32.135Z,99262.56
2022-11-27T01:11:35.930Z,99252.72
2022-11-27T01:12:38.649Z,99258.66
2022-11-27T01:13:42.012Z,99256.66
2022-11-27T01:14:44.654Z,99253.00
2022-11-27T01:15:47.967Z,99255.44
2022-11-27T01:16:50.786Z,99255.44
2022-11-27T01:17:53.465Z,99256.47
2022-11-27T01:18:58.111Z,99253.53
2022-11-27T01:20:00.732Z,99247.84
2022-11-27T01:21:04.302Z,99254.84
2022-11-27T01:22:06.894Z,99253.59
2022-11-27T01:23:09.620Z,99250.34
2022-11-27T01:24:14.454Z,99254.63
2022-11-27T01:25:17.012Z,99253.44
2022-11-27T01:26:19.895Z,99251.78
2022-11-27T01:27:22.548Z,99257.44
2022-11-27T01:28:25.289Z,99259.41
2022-11-27T01:29:27.893Z,99255.53
2022-11-27T01:30:30.734Z,99259.50
2022-11-27T01:31:34.760Z,99252.78
2022-11-27T01:32:37.461Z,99262.00
2022-11-27T01:33:40.504Z,99263.03
2022-11-27T01:34:43.137Z,99265.53
2022-11-27T01:35:56.691Z,99262.37
2022-11-27T01:36:59.416Z,99260.66
2022-11-27T01:38:02.251Z,99262.44
2022-11-27T01:39:05.650Z,99263.47
2022-11-27T01:40:09.215Z,99260.06
2022-11-27T01:41:16.495Z,99264.06
2022-11-27T01:42:19.249Z,99260.38
2022-11-27T01:43:56.829Z,99263.09
2022-11-27T01:44:59.576Z,99257.88
2022-11-27T01:46:02.480Z,99263.53
2022-11-27T01:47:25.173Z,99257.16
2022-11-27T01:48:27.971Z,99256.41
2022-11-27T01:49:35.891Z,99255.69
2022-11-27T01:50:40.494Z,99261.41
2022-11-27T01:52:14.290Z,99256.22
2022-11-27T01:53:19.813Z,99255.06
2022-11-27T01:54:26.420Z,99252.13
2022-11-27T01:55:41.214Z,99257.56
2022-11-27T01:56:49.175Z,99256.09
2022-11-27T01:58:15.304Z,99254.09
2022-11-27T01:59:19.078Z,99254.84
2022-11-27T02:00:22.462Z,99253.09
2022-11-27T02:01:26.439Z,99255.81
2022-11-27T02:02:29.276Z,99255.28
2022-11-27T02:03:32.974Z,99252.78
2022-11-27T02:04:35.932Z,99258.47
2022-11-27T02:05:38.767Z,99258.00
2022-11-27T02:06:41.720Z,99262.72
2022-11-27T02:07:46.217Z,99263.25
2022-11-27T02:08:48.979Z,99268.75
2022-11-27T02:09:52.346Z,99268.16
2022-11-27T02:10:57.493Z,99262.00
2022-11-27T02:12:26.953Z,99264.47
2022-11-27T02:13:38.458Z,99268.03
2022-11-27T02:14:47.310Z,99268.50
2022-11-27T02:16:02.073Z,99267.31
2022-11-27T02:17:32.452Z,99266.16
2022-11-27T02:18:54.492Z,99266.22
2022-11-27T02:20:21.691Z,99268.47
2022-11-27T02:21:51.841Z,99264.28
2022-11-27T02:23:22.573Z,99260.78
2022-11-27T02:24:50.143Z,99261.34
2022-11-27T02:26:19.492Z,99260.16
2022-11-27T02:27:37.091Z,99251.25
2022-11-27T02:29:17.900Z,99256.19
2022-11-27T02:30:20.901Z,99258.19
2022-11-27T02:31:40.569Z,99262.19
2022-11-27T02:32:59.494Z,99254.31
2022-11-27T02:34:13.935Z,99257.53
2022-11-27T02:35:29.017Z,99252.91
2022-11-27T02:36:34.295Z,99255.63
2022-11-27T02:37:53.656Z,99265.53
2022-11-27T02:39:22.129Z,99258.41
2022-11-27T02:40:32.253Z,99264.81
2022-11-27T02:41:42.413Z,99262.59
2022-11-27T02:43:02.896Z,99271.25
2022-11-27T02:44:09.531Z,99264.84
2022-11-27T02:45:16.532Z,99267.78
2022-11-27T02:46:21.009Z,99273.69
2022-11-27T02:47:24.288Z,99265.06
2022-11-27T02:48:35.011Z,99263.59
2022-11-27T02:49:39.694Z,99263.38
2022-11-27T02:50:45.371Z,99265.62
2022-11-27T02:51:59.348Z,99263.13
2022-11-27T02:53:08.014Z,99264.38
2022-11-27T02:54:18.857Z,99267.13
2022-11-27T02:55:27.913Z,99263.97
2022-11-27T02:56:32.815Z,99263.97
2022-11-27T02:57:39.414Z,99267.63
2022-11-27T02:58:43.060Z,99272.84
2022-11-27T02:59:46.780Z,99267.63
2022-11-27T03:00:50.934Z,99269.84
2022-11-27T03:01:59.530Z,99271.03
2022-11-27T03:03:07.499Z,99270.50
2022-11-27T03:04:16.385Z,99268.25
2022-11-27T03:05:23.095Z,99271.97
2022-11-27T03:06:33.947Z,99265.69
2022-11-27T03:07:41.676Z,99263.03
2022-11-27T03:08:55.131Z,99270.69
2022-11-27T03:10:04.099Z,99269.34
2022-11-27T03:11:11.971Z,99264.41
2022-11-27T03:12:16.696Z,99269.63
2022-11-27T03:13:19.515Z,99263.22
2022-11-27T03:14:25.113Z,99270.66
2022-11-27T03:15:37.830Z,99263.75
2022-11-27T03:16:58.388Z,99262.66
2022-11-27T03:18:21.109Z,99263.63
2022-11-27T03:19:41.581Z,99267.88
2022-11-27T03:20:49.548Z,99265.69
2022-11-27T03:21:58.709Z,99262.03
2022-11-27T03:23:01.345Z,99274.38
2022-11-27T03:24:04.457Z,99271.13
2022-11-27T03:25:07.529Z,99272.38
2022-11-27T03:26:10.405Z,99271.72
2022-11-27T03:27:19.089Z,99266.78
2022-11-27T03:28:22.823Z,99266.56
2022-11-27T03:29:39.397Z,99263.59
2022-11-27T03:30:42.199Z,99260.22
2022-11-27T03:31:45.314Z,99264.19
2022-11-27T03:32:48.206Z,99263.72
2022-11-27T03:33:51.140Z,99260.25
2022-11-27T03:34:54.852Z,99272.38
2022-11-27T03:35:57.607Z,99262.72
2022-11-27T03:37:01.276Z,99271.66
2022-11-27T03:38:04.379Z,99273.12
2022-11-27T03:39:07.211Z,99274.88
2022-11-27T03:40:12.014Z,99277.81
2022-11-27T03:41:42.689Z,99278.56
2022-11-27T03:43:00.301Z,99279.75
2022-11-27T03:44:26.974Z,99281.22
2022-11-27T03:45:38.532Z,99272.59
2022-11-27T03:46:54.074Z,99281.16
2022-11-27T03:48:34.246Z,99279.03
2022-11-27T03:50:09.029Z,99287.34
2022-11-27T03:51:17.421Z,99276.75
2022-11-27T03:52:28.655Z,99279.03
2022-11-27T03:53:37.184Z,99275.50
2022-11-27T03:55:13.775Z,99277.94
2022-11-27T03:56:51.541Z,99272.78
2022-11-27T03:58:03.261Z,99279.69
2022-11-27T03:59:18.337Z,99274.84
2022-11-27T04:00:21.012Z,99275.84
2022-11-27T04:01:26.598Z,99277.09
2022-11-27T04:02:47.599Z,99275.56
2022-11-27T04:03:50.450Z,99269.87
2022-11-27T04:04:53.141Z,99273.12
2022-11-27T04:05:56.011Z,99275.31
2022-11-27T04:06:58.972Z,99269.44
2022-11-27T04:08:01.695Z,99268.25
2022-11-27T04:09:05.297Z,99272.94
2022-11-27T04:10:09.214Z,99269.50
2022-11-27T04:11:12.449Z,99275.88
2022-11-27T04:12:15.139Z,99272.22
2022-11-27T04:13:18.101Z,99272.22
2022-11-27T04:14:20.861Z,99272.47
2022-11-27T04:15:23.577Z,99271.75
2022-11-27T04:16:26.441Z,99275.72
2022-11-27T04:17:29.625Z,99264.84
2022-11-27T04:18:34.185Z,99270.72
2022-11-27T04:19:36.933Z,99272.94
2022-11-27T04:20:39.613Z,99275.88
2022-11-27T04:21:42.292Z,99274.12
2022-11-27T04:22:44.993Z,99277.59
2022-11-27T04:23:47.783Z,99268.94
2022-11-27T04:24:51.173Z,99276.78
2022-11-27T04:25:53.932Z,99279.03
2022-11-27T04:26:56.572Z,99273.12
2022-11-27T04:27:59.219Z,99277.31
2022-11-27T04:29:02.172Z,99277.81
2022-11-27T04:30:05.531Z,99271.66
2022-11-27T04:31:08.517Z,99280.38
2022-11-27T04:32:11.245Z,99275.66
2022-11-27T04:33:14.088Z,99270.22
2022-11-27T04:34:16.850Z,99275.19
2022-11-27T04:35:19.487Z,99274.72
2022-11-27T04:36:26.654Z,99273.78
2022-11-27T04:37:29.312Z,99269.34
2022-11-27T04:38:31.978Z,99275.81
2022-11-27T04:39:34.672Z,99277.03
2022-11-27T04:40:37.364Z,99273.12
2022-11-27T04:41:40.215Z,99272.62
2022-11-27T04:42:43.638Z,99275.09
2022-11-27T04:43:46.302Z,99278.31
2022-11-27T04:44:48.890Z,99273.66
2022-11-27T04:45:51.873Z,99271.22
2022-11-27T04:46:55.341Z,99273.69
2022-11-27T04:47:58.164Z,99270.75
2022-11-27T04:49:00.785Z,99264.81
2022-11-27T04:50:03.933Z,99262.37
2022-11-27T04:51:06.700Z,99263.38
2022-11-27T04:52:11.032Z,99260.44
2022-11-27T04:53:13.775Z,99260.94
2022-11-27T04:54:16.478Z,99265.41
2022-11-27T04:55:19.256Z,99262.91
2022-11-27T04:56:22.079Z,99262.47
2022-11-27T04:57:24.888Z,99256.53
2022-11-27T04:58:27.637Z,99262.22
2022-11-27T04:59:30.489Z,99264.97
2022-11-27T05:00:33.323Z,99265.25
2022-11-27T05:01:36.319Z,99261.28
2022-11-27T05:02:39.817Z,99258.09
2022-11-27T05:03:42.535Z,99258.88
2022-11-27T05:04:45.369Z,99262.59
2022-11-27T05:05:56.196Z,99263.34
2022-11-27T05:06:58.913Z,99260.16
2022-11-27T05:08:01.856Z,99258.94
2022-11-27T05:09:05.150Z,99268.34
2022-11-27T05:10:08.907Z,99263.16
2022-11-27T05:11:14.352Z,99262.19
2022-11-27T05:12:17.824Z,99257.47
2022-11-27T05:13:20.740Z,99263.63
2022-11-27T05:14:29.620Z,99254.50
2022-11-27T05:15:32.616Z,99255.72
2022-11-27T05:16:35.549Z,99253.50
2022-11-27T05:17:38.400Z,99259.16
2022-11-27T05:18:44.572Z,99254.97
2022-11-27T05:19:47.477Z,99258.22
2022-11-27T05:21:05.136Z,99252.25
2022-11-27T05:22:08.056Z,99262.59
2022-11-27T05:23:11.022Z,99257.66
2022-11-27T05:24:15.148Z,99264.13
2022-11-27T05:25:18.055Z,99258.91
2022-11-27T05:26:20.859Z,99260.66
2022-11-27T05:27:23.805Z,99267.81
2022-11-27T05:28:27.395Z,99260.41
2022-11-27T05:29:30.342Z,99257.97
2022-11-27T05:30:33.108Z,99259.47
2022-11-27T05:31:36.876Z,99262.44
2022-11-27T05:32:39.703Z,99249.09
2022-11-27T05:33:42.586Z,99262.69
2022-11-27T05:34:45.430Z,99260.72
2022-11-27T05:35:48.363Z,99262.97
2022-11-27T05:36:51.272Z,99252.88
2022-11-27T05:37:54.172Z,99262.47
2022-11-27T05:38:57.115Z,99265.91
2022-11-27T05:40:00.059Z,99266.16
2022-11-27T05:41:02.942Z,99259.75
2022-11-27T05:42:05.790Z,99251.56
2022-11-27T05:43:08.877Z,99257.00
2022-11-27T05:44:16.869Z,99261.87
2022-11-27T05:45:19.779Z,99251.28
2022-11-27T05:46:23.897Z,99254.72
2022-11-27T05:47:27.143Z,99255.25
2022-11-27T05:48:29.986Z,99254.47
2022-11-27T05:49:33.019Z,99257.19
2022-11-27T05:50:35.820Z,99257.94
2022-11-27T05:51:38.698Z,99251.50
2022-11-27T05:52:41.423Z,99252.25
2022-11-27T05:53:44.353Z,99253.97
2022-11-27T05:54:47.267Z,99255.94
2022-11-27T05:55:50.060Z,99254.87
2022-11-27T05:56:53.039Z,99262.53
2022-11-27T05:57:56.068Z,99268.19
2022-11-27T05:58:59.064Z,99262.50
2022-11-27T06:00:02.262Z,99259.47
2022-11-27T06:01:07.840Z,99269.84
2022-11-27T06:02:15.072Z,99271.63
2022-11-27T06:03:21.412Z,99263.25
2022-11-27T06:04:24.311Z,99262.75
2022-11-27T06:05:27.178Z,99271.13
2022-11-27T06:06:30.144Z,99273.38
2022-11-27T06:07:33.378Z,99268.47
2022-11-27T06:08:38.019Z,99265.28
2022-11-27T06:09:40.866Z,99264.09
2022-11-27T06:10:43.867Z,99265.31
2022-11-27T06:11:46.820Z,99263.84
2022-11-27T06:12:49.817Z,99260.59
2022-11-27T06:13:52.656Z,99264.78
2022-11-27T06:14:55.575Z,99261.34
2022-11-27T06:15:58.704Z,99269.47
2022-11-27T06:17:03.338Z,99263.03
2022-11-27T06:18:07.152Z,99269.19
2022-11-27T06:19:10.228Z,99269.94
2022-11-27T06:20:13.351Z,99277.59
2022-11-27T06:21:20.421Z,99272.91
2022-11-27T06:22:23.270Z,99283.75
2022-11-27T06:23:26.178Z,99277.59
2022-11-27T06:24:29.068Z,99278.31
2022-11-27T06:25:32.108Z,99286.63
2022-11-27T06:26:35.306Z,99286.84
2022-11-27T06:27:38.473Z,99281.41
2022-11-27T06:28:42.424Z,99285.34
2022-11-27T06:29:45.176Z,99283.13
2022-11-27T06:30:48.179Z,99284.13
2022-11-27T06:31:51.134Z,99283.34
2022-11-27T06:32:54.421Z,99275.00
2022-11-27T06:33:58.338Z,99283.34
2022-11-27T06:35:01.660Z,99277.44
2022-11-27T06:36:05.785Z,99274.22
2022-11-27T06:37:12.986Z,99280.59
2022-11-27T06:38:16.304Z,99283.06
2022-11-27T06:39:19.300Z,99280.59
2022-11-27T06:40:22.626Z,99279.13
2022-11-27T06:41:27.419Z,99284.81
2022-11-27T06:42:31.141Z,99280.84
2022-11-27T06:43:35.056Z,99287.97
2022-11-27T06:44:38.139Z,99283.28
2022-11-27T06:45:41.367Z,99286.97
2022-11-27T06:46:44.428Z,99281.78
2022-11-27T06:47:47.539Z,99290.66
2022-11-27T06:48:52.986Z,99285.47
2022-11-27T06:49:55.868Z,99288.66
2022-11-27T06:51:02.937Z,99290.56
2022-11-27T06:52:05.936Z,99288.31
2022-11-27T06:53:08.817Z,99289.69
2022-11-27T06:54:11.780Z,99292.72
2022-11-27T06:55:14.631Z,99288.28
2022-11-27T06:56:20.262Z,99297.69
2022-11-27T06:57:23.580Z,99287.50
2022-11-27T06:58:30.840Z,99287.97
2022-11-27T06:59:34.261Z,99287.22
2022-11-27T07:00:37.641Z,99277.81
2022-11-27T07:01:40.943Z,99281.00
2022-11-27T07:02:43.815Z,99281.50
2022-11-27T07:03:46.858Z,99280.75
2022-11-27T07:04:49.624Z,99283.47
2022-11-27T07:05:52.466Z,99280.03
2022-11-27T07:06:55.827Z,99273.34
2022-11-27T07:07:59.199Z,99283.00
2022-11-27T07:09:02.077Z,99279.50
2022-11-27T07:10:05.491Z,99289.16
2022-11-27T07:11:16.139Z,99285.94
2022-11-27T07:12:19.026Z,99287.84
2022-11-27T07:13:21.970Z,99285.88
2022-11-27T07:14:24.766Z,99283.16
2022-11-27T07:15:27.709Z,99280.91
2022-11-27T07:16:33.590Z,99286.56
2022-11-27T07:17:38.285Z,99289.50
2022-11-27T07:18:44.610Z,99288.28
2022-11-27T07:19:47.882Z,99292.69
2022-11-27T07:20:56.450Z,99291.44
2022-11-27T07:21:59.706Z,99287.25
2022-11-27T07:23:02.859Z,99288.50
2022-11-27T07:24:06.107Z,99286.06
2022-11-27T07:25:09.203Z,99289.28
2022-11-27T07:26:13.758Z,99291.78
2022-11-27T07:27:16.688Z,99287.13
2022-11-27T07:28:20.988Z,99287.31
2022-11-27T07:29:23.889Z,99294.44
2022-11-27T07:30:26.771Z,99296.62
2022-11-27T07:31:30.543Z,99296.62
2022-11-27T07:32:33.584Z,99301.47
2022-11-27T07:33:36.757Z,99300.50
2022-11-27T07:34:39.904Z,99303.84
2022-11-27T07:35:42.886Z,99305.09
2022-11-27T07:36:45.863Z,99300.22
2022-11-27T07:37:48.626Z,99305.94
2022-11-27T07:38:51.962Z,99302.25
2022-11-27T07:40:02.343Z,99306.47
2022-11-27T07:41:06.948Z,99307.63
2022-11-27T07:42:37.125Z,99316.31
2022-11-27T07:43:34.192Z,99305.66
2022-11-27T07:44:37.595Z,99306.91
2022-11-27T07:45:40.398Z,99307.19
2022-11-27T07:46:44.550Z,99307.16
2022-11-27T07:47:47.497Z,99306.91
2022-11-27T07:48:55.586Z,99302.13
2022-11-27T07:50:00.692Z,99306.97
2022-11-27T07:51:07.639Z,99298.41
2022-11-27T07:52:10.436Z,99308.25
2022-11-27T07:53:13.390Z,99304.31
2022-11-27T07:54:16.177Z,99304.84
2022-11-27T07:55:18.975Z,99301.19
2022-11-27T07:56:22.024Z,99303.38
2022-11-27T07:57:24.916Z,99299.16
2022-11-27T07:58:27.841Z,99299.94
2022-11-27T07:59:30.899Z,99291.44
2022-11-27T08:00:34.489Z,99302.03
2022-11-27T08:01:37.446Z,99297.91
2022-11-27T08:02:40.471Z,99302.88
2022-11-27T08:03:46.162Z,99297.22
2022-11-27T08:04:49.336Z,99291.03
2022-11-27T08:05:52.612Z,99296.69
2022-11-27T08:06:57.728Z,99297.22
2022-11-27T08:08:01.729Z,99301.91
2022-11-27T08:09:04.841Z,99295.47
2022-11-27T08:10:08.561Z,99299.41
2022-11-27T08:11:23.923Z,99297.44
2022-11-27T08:12:27.156Z,99295.75
2022-11-27T08:13:30.086Z,99297.94
2022-11-27T08:14:33.276Z,99299.72
2022-11-27T08:15:37.640Z,99296.25
2022-11-27T08:16:40.725Z,99292.75
2022-11-27T08:17:44.155Z,99298.28
2022-11-27T08:18:47.223Z,99302.94
2022-11-27T08:19:50.083Z,99300.28
2022-11-27T08:20:53.011Z,99309.22
2022-11-27T08:21:57.741Z,99305.25
2022-11-27T08:23:02.934Z,99308.13
2022-11-27T08:24:06.384Z,99309.84
2022-11-27T08:25:09.712Z,99314.41
2022-11-27T08:26:13.613Z,99311.97
2022-11-27T08:27:16.740Z,99309.97
2022-11-27T08:28:19.492Z,99311.22
2022-11-27T08:29:22.353Z,99318.88
2022-11-27T08:30:25.701Z,99317.63
2022-11-27T08:31:28.993Z,99318.06
2022-11-27T08:32:31.986Z,99321.53
2022-11-27T08:33:35.711Z,99330.87
2022-11-27T08:34:38.906Z,99321.34
2022-11-27T08:35:49.147Z,99320.69
2022-11-27T08:36:52.132Z,99324.47
2022-11-27T08:37:54.919Z,99319.31
2022-11-27T08:38:58.482Z,99321.53
2022-11-27T08:40:01.447Z,99320.28
2022-11-27T08:41:06.542Z,99326.97
2022-11-27T08:42:09.552Z,99318.81
2022-11-27T08:43:12.463Z,99327.38
2022-11-27T08:44:15.282Z,99319.47
2022-11-27T08:45:20.505Z,99324.72
2022-11-27T08:46:23.405Z,99326.97
2022-11-27T08:47:26.476Z,99321.00
2022-11-27T08:48:31.400Z,99320.75
2022-11-27T08:49:34.504Z,99322.66
2022-11-27T08:50:38.381Z,99326.78
2022-11-27T08:51:41.663Z,99315.84
2022-11-27T08:52:44.681Z,99322.66
2022-11-27T08:53:47.664Z,99326.84
2022-11-27T08:54:54.557Z,99332.09
2022-11-27T08:56:12.896Z,99331.28
2022-11-27T08:57:17.156Z,99330.81
2022-11-27T08:58:22.011Z,99329.06
2022-11-27T08:59:25.073Z,99329.34
2022-11-27T09:00:28.401Z,99337.28
2022-11-27T09:01:32.832Z,99333.38
2022-11-27T09:02:35.748Z,99338.59
2022-11-27T09:03:39.122Z,99336.66
2022-11-27T09:04:42.359Z,99336.22
2022-11-27T09:05:45.671Z,99343.34
2022-11-27T09:06:56.788Z,99341.88
2022-11-27T09:08:03.050Z,99344.81
2022-11-27T09:09:06.467Z,99346.75
2022-11-27T09:10:10.867Z,99341.56
2022-11-27T09:11:15.847Z,99342.78
2022-11-27T09:12:19.226Z,99350.44
2022-11-27T09:13:22.164Z,99351.56
2022-11-27T09:14:25.204Z,99347.25
2022-11-27T09:15:28.442Z,99351.50
2022-11-27T09:16:32.157Z,99341.38
2022-11-27T09:17:35.454Z,99347.63
2022-11-27T09:18:38.973Z,99348.56
2022-11-27T09:19:41.805Z,99348.78
2022-11-27T09:20:45.577Z,99349.16
2022-11-27T09:21:50.982Z,99345.44
2022-11-27T09:22:53.823Z,99351.41
2022-11-27T09:23:58.779Z,99348.69
2022-11-27T09:25:01.732Z,99346.69
2022-11-27T09:26:07.981Z,99344.66
2022-11-27T09:27:11.007Z,99346.69
2022-11-27T09:28:14.059Z,99345.37
2022-11-27T09:29:17.006Z,99348.62
2022-11-27T09:30:20.163Z,99348.62
2022-11-27T09:31:23.611Z,99343.19
2022-11-27T09:32:26.532Z,99348.28
2022-11-27T09:33:32.694Z,99346.47
2022-11-27T09:34:37.726Z,99338.87
2022-11-27T09:35:41.159Z,99349.53
2022-11-27T09:36:44.387Z,99339.88
2022-11-27T09:37:47.242Z,99337.09
2022-11-27T09:38:50.461Z,99336.09
2022-11-27T09:39:53.717Z,99335.81
2022-11-27T09:41:03.548Z,99337.34
2022-11-27T09:42:10.152Z,99337.03
2022-11-27T09:43:16.638Z,99332.34
2022-11-27T09:44:22.218Z,99332.91
2022-11-27T09:45:27.435Z,99329.25
2022-11-27T09:46:36.256Z,99333.16
2022-11-27T09:47:44.780Z,99338.00
2022-11-27T09:48:50.807Z,99342.19
2022-11-27T09:49:59.797Z,99339.19
2022-11-27T09:51:10.759Z,99337.94
2022-11-27T09:52:50.603Z,99334.69
2022-11-27T09:54:03.328Z,99341.56
2022-11-27T09:55:26.525Z,99334.28
2022-11-27T09:56:32.879Z,99335.09
2022-11-27T09:57:39.609Z,99335.16
2022-11-27T09:58:45.602Z,99328.97
2022-11-27T09:59:54.089Z,99320.56
2022-11-27T10:00:57.121Z,99326.91
2022-11-27T10:02:00.085Z,99333.09
2022-11-27T10:03:03.181Z,99325.44
2022-11-27T10:04:06.817Z,99326.19
2022-11-27T10:05:27.133Z,99318.75
2022-11-27T10:07:00.529Z,99321.69
2022-11-27T10:08:18.839Z,99315.44
2022-11-27T10:09:34.551Z,99314.41
2022-11-27T10:10:56.216Z,99321.13
2022-11-27T10:12:07.279Z,99320.88
2022-11-27T10:14:04.197Z,99316.69
2022-11-27T10:15:42.556Z,99309.03
2022-11-27T10:16:54.505Z,99309.69
2022-11-27T10:18:15.415Z,99308.59
2022-11-27T10:19:21.211Z,99303.81
2022-11-27T10:20:36.552Z,99303.66
2022-11-27T10:22:00.056Z,99310.38
2022-11-27T10:23:15.568Z,99301.31
2022-11-27T10:24:31.539Z,99303.81
2022-11-27T10:25:43.633Z,99314.84
2022-11-27T10:26:49.534Z,99311.00
2022-11-27T10:28:06.995Z,99308.50
2022-11-27T10:29:15.949Z,99308.63
2022-11-27T10:30:22.083Z,99301.03
2022-11-27T10:31:50.069Z,99297.94
2022-11-27T10:32:57.442Z,99298.75
2022-11-27T10:34:19.757Z,99298.00
2022-11-27T10:35:25.398Z,99299.41
2022-11-27T10:36:50.955Z,99304.03
2022-11-27T10:38:05.254Z,99298.13
2022-11-27T10:39:35.655Z,99301.22
2022-11-27T10:41:28.471Z,99296.88
2022-11-27T10:42:43.534Z,99297.94
2022-11-27T10:43:48.871Z,99295.41
2022-11-27T10:45:00.295Z,99296.38
2022-11-27T10:46:22.079Z,99292.59
2022-11-27T10:47:29.678Z,99300.06
2022-11-27T10:48:38.408Z,99292.00
2022-11-27T10:49:42.958Z,99288.88
2022-11-27T10:50:46.499Z,99294.72
2022-11-27T10:51:49.451Z,99289.97
2022-11-27T10:53:03.582Z,99289.50
2022-11-27T10:54:12.687Z,99292.75
2022-11-27T10:55:27.339Z,99288.78
2022-11-27T10:57:08.854Z,99289.88
2022-11-27T10:58:24.604Z,99287.25
2022-11-27T10:59:34.895Z,99285.25
2022-11-27T11:00:38.026Z,99279.34
2022-11-27T11:01:49.958Z,99276.63
2022-11-27T11:03:04.456Z,99272.97
2022-11-27T11:04:31.242Z,99272.88
2022-11-27T11:05:56.844Z,99270.53
2022-11-27T11:06:58.730Z,99266.75
2022-11-27T11:08:15.188Z,99266.41
2022-11-27T11:09:25.440Z,99269.34
2022-11-27T11:10:32.878Z,99269.22
2022-11-27T11:11:35.687Z,99264.19
2022-11-27T11:12:38.623Z,99257.50
2022-11-27T11:13:41.666Z,99261.91
2022-11-27T11:15:01.017Z,99257.84
2022-11-27T11:16:08.826Z,99260.06
2022-11-27T11:17:18.485Z,99260.81
2022-11-27T11:18:28.042Z,99258.28
2022-11-27T11:19:33.451Z,99258.81
2022-11-27T11:20:36.459Z,99255.56
2022-11-27T11:21:42.557Z,99250.62
2022-11-27T11:22:49.094Z,99251.53
2022-11-27T11:24:02.040Z,99257.50
2022-11-27T11:25:05.600Z,99253.91
2022-11-27T11:26:29.037Z,99259.13
2022-11-27T11:27:32.687Z,99250.00
2022-11-27T11:28:54.657Z,99252.06
2022-11-27T11:30:06.381Z,99248.56
2022-11-27T11:31:14.302Z,99246.81
2022-11-27T11:32:20.549Z,99239.75
2022-11-27T11:33:23.493Z,99246.97
2022-11-27T11:34:29.185Z,99242.78
2022-11-27T11:35:36.320Z,99244.25
2022-11-27T11:36:39.996Z,99243.00
2022-11-27T11:37:46.498Z,99239.66
2022-11-27T11:38:50.558Z,99241.44
2022-11-27T11:39:58.328Z,99234.94
2022-11-27T11:41:08.000Z,99237.19
2022-11-27T11:42:19.069Z,99232.31
2022-11-27T11:43:33.525Z,99236.09
2022-11-27T11:44:39.559Z,99235.78
2022-11-27T11:45:50.709Z,99230.84
2022-11-27T11:46:55.050Z,99228.66
2022-11-27T11:48:04.259Z,99231.09
2022-11-27T11:49:17.400Z,99223.03
2022-11-27T11:51:08.427Z,99227.94
2022-11-27T11:52:38.344Z,99225.16
2022-11-27T11:53:45.772Z,99228.91
2022-11-27T11:54:56.228Z,99224.59
2022-11-27T11:56:39.858Z,99229.22
2022-11-27T11:58:10.490Z,99226.94
2022-11-27T11:59:42.129Z,99218.09
2022-11-27T12:01:19.433Z,99210.75
2022-11-27T12:02:19.830Z,99222.22
2022-11-27T12:03:51.756Z,99210.75
2022-11-27T12:05:24.606Z,99218.56
2022-11-27T12:06:45.943Z,99216.72
2022-11-27T12:08:15.000Z,99212.84
2022-11-27T12:09:42.790Z,99214.81
2022-11-27T12:10:54.040Z,99215.34
2022-11-27T12:12:02.843Z,99209.91
2022-11-27T12:13:25.961Z,99214.09
2022-11-27T12:14:43.348Z,99213.56
2022-11-27T12:16:20.062Z,99214.00
2022-11-27T12:17:42.090Z,99214.00
2022-11-27T12:19:08.124Z,99209.81
2022-11-27T12:20:32.533Z,99211.13
2022-11-27T12:21:42.599Z,99211.34
2022-11-27T12:23:22.559Z,99211.03
2022-11-27T12:24:43.108Z,99210.41
2022-11-27T12:26:06.682Z,99204.28
2022-11-27T12:27:45.979Z,99210.28
2022-11-27T12:28:59.305Z,99201.66
2022-11-27T12:30:19.322Z,99203.84
2022-11-27T12:31:36.026Z,99203.31
2022-11-27T12:33:14.621Z,99191.94
2022-11-27T12:34:23.546Z,99196.34
2022-11-27T12:35:42.598Z,99198.38
2022-11-27T12:37:11.176Z,99196.91
2022-11-27T12:38:22.631Z,99200.97
2022-11-27T12:39:33.265Z,99206.31
2022-11-27T12:40:56.067Z,99197.72
2022-11-27T12:42:34.474Z,99198.03
2022-11-27T12:43:51.077Z,99197.78
2022-11-27T12:44:57.453Z,99192.87
2022-11-27T12:46:10.799Z,99200.03
2022-11-27T12:47:38.932Z,99191.88
2022-11-27T12:49:10.835Z,99205.59
2022-11-27T12:50:24.297Z,99198.81
2022-11-27T12:51:38.709Z,99199.41
2022-11-27T12:52:46.424Z,99198.97
2022-11-27T12:53:55.809Z,99193.03
2022-11-27T12:55:23.419Z,99200.78
2022-11-27T12:56:42.137Z,99196.44
2022-11-27T12:57:54.741Z,99194.22
2022-11-27T12:59:23.348Z,99193.41
2022-11-27T13:00:31.244Z,99205.50
2022-11-27T13:01:41.262Z,99198.38
2022-11-27T13:03:05.434Z,99197.94
2022-11-27T13:04:37.940Z,99196.97
2022-11-27T13:05:50.592Z,99192.50
2022-11-27T13:07:18.474Z,99189.31
2022-11-27T13:08:49.601Z,99184.38
2022-11-27T13:10:08.592Z,99190.78
2022-11-27T13:11:15.833Z,99191.09
2022-11-27T13:12:31.876Z,99194.97
2022-11-27T13:14:01.103Z,99185.81
2022-11-27T13:16:32.417Z,99187.69
2022-11-27T13:17:42.715Z,99185.41
2022-11-27T13:19:12.399Z,99194.63
2022-11-27T13:20:21.316Z,99190.63
2022-11-27T13:21:29.998Z,99188.00
2022-11-27T13:22:36.403Z,99188.88